KOCF/OCF METAR and TAF weather

Enter ICAO airport designator
Station Type Date Time Source
KOCF METAR 2022/06/27 07:51 UTC NOAA

KOCF 270751Z AUTO 01003KT CLR 23/21 A3004 RMK AO2 SLPNO T02330206 PWINO $


Station Type Date Time Source
KOCF Decoded METAR 2022/06/27 07:51 UTC NOAA

Ocala, Ocala International Airport-Jim Taylor Field, FL, United States (KOCF) 29-10N 082-13W
Jun 27, 2022 - 03:51 AM EDT / 2022.06.27 0751 UTC
Wind: from the N (010 degrees) at 3 MPH (3 KT):0
Sky conditions: clear
Temperature: 73.9 F (23.3 C)
Dew Point: 69.1 F (20.6 C)
Relative Humidity: 84%
Pressure (altimeter): 30.04 in. Hg (1017 hPa)
ob: KOCF 270751Z AUTO 01003KT CLR 23/21 A3004 RMK AO2 SLPNO T02330206 PWINO
cycle: 8

Station Type Date Time Source
KOCF TAF UTC NOAA

Error!

Example: see airport list